TAF LFRG
METAR LFRG
LFRG 082200Z AUTO 22011KT 9999 FEW039 03/02 Q1004=
LFRG 082130Z AUTO 22011KT 9999 ///TCU 03/01 Q1004=
LFRG 082100Z AUTO 23012KT 9999 FEW049 03/01 Q1003 TEMPO 26015G30KT 4000 SHRA BKN012CB=
LFRG 082030Z AUTO 23011KT 9999 FEW039 03/01 Q1003 TEMPO 26015G30KT 4000 SHRA BKN012CB=
LFRG 082000Z AUTO 22010KT CAVOK 03/01 Q1003 TEMPO 26015G30KT 4000 SHRA BKN012CB=
WC LFRG
WS LFRG
WV LFRG